Altoona, Alabama
Current Conditions -  °F | °C
As of 6:35 PM on Friday 31 Oct 2014 (Local Time) from K8A0 Reporting Station
Light Rain Light Rain  
Wind Chill: 30°   Ceiling: 1900
Heat Index: 41°   Visibility: 10mi
Dew Point: 41°   Wind: 26mph
Humidity: 100%   Direction: 340°NNW
Pressure: 30.05"   Gusts: 43mph
Location:  34.03°N, 86.33°W
Report Text: K8A0 312335Z AUTO 34023G37KT 10SM -RA SCT013 BKN019 OVC036 05/05 A3005 RMK AO2 P0003
Loading
Personal Weather Stations






























Interactive Weather Map
Tropical Storm Tracking
New forecast layout! Learn more

10-Day Weather Forecast

Advertisements
Track Severe Weather on mobile